Time;durP1;ratioP1;P1;durP2;ratioP2;P2;SDS_P1;SDS_P2;PMS_P1;PMS_P2;Temp;Humidity;BMP_temperature;BMP_pressure;BME280_temperature;BME280_humidity;BME280_pressure;Samples;Min_cycle;Max_cycle;Signal;HPM_P1;HPM_P2
2022/04/27 00:00:03;;;;;;;;;;;;;;;15.93;51.74;99747.91;4413575;32;34081;-91
2022/04/27 00:02:38;;;;;;;;;;;;;;;16.01;50.99;99746.00;4400726;32;32751;-88
2022/04/27 00:05:06;;;;;;;;;;;;;;;16.10;50.45;99742.25;4398804;32;33866;-87
2022/04/27 00:07:33;;;;;;;;;;;;;;;16.03;50.63;99749.34;4374645;32;33608;-85
2022/04/27 00:10:01;;;;;;;;;;;;;;;16.05;50.83;99746.47;4411924;32;35148;-88
2022/04/27 00:12:29;;;;;;;;;;;;;;;15.80;50.64;99755.72;4386046;32;32214;-88
2022/04/27 00:14:57;;;;;;;;;;;;;;;15.81;50.60;99757.37;4385841;32;33023;-92
2022/04/27 00:17:24;;;;;;;;;;;;;;;15.89;50.65;99757.31;4386102;32;34430;-89
2022/04/27 00:19:52;;;;;;;;;;;;;;;15.81;51.20;99760.91;4400654;32;33838;-90
2022/04/27 00:22:19;;;;;;;;;;;;;;;15.81;50.46;99766.28;4407980;32;33982;-87
2022/04/27 00:24:47;;;;;;;;;;;;;;;16.07;49.76;99761.38;4389020;32;34632;-88
2022/04/27 00:27:15;;;;;;;;;;;;;;;16.12;49.67;99756.31;4385238;32;34016;-89
2022/04/27 00:29:43;;;;;;;;;;;;;;;16.20;49.45;99758.06;4381922;32;33077;-87
2022/04/27 00:32:10;;;;;;;;;;;;;;;16.31;49.19;99763.00;4414519;32;31818;-92
2022/04/27 00:34:39;;;;;;;;;;;;;;;16.18;49.92;99754.75;4406663;32;33670;-92
2022/04/27 00:37:06;;;;;;;;;;;;;;;16.43;49.15;99756.25;4387838;32;34547;-90
2022/04/27 00:39:34;;;;;;;;;;;;;;;16.50;49.46;99751.81;4405282;32;34409;-91
2022/04/27 00:42:14;;;;;;;;;;;;;;;16.54;49.39;99759.28;4400157;32;33380;-89
2022/04/27 00:44:43;;;;;;;;;;;;;;;16.61;49.26;99770.16;4415882;32;34320;-90
2022/04/27 00:47:12;;;;;;;;;;;;;;;16.45;50.15;99767.63;4411631;32;35011;-87
2022/04/27 00:49:40;;;;;;;;;;;;;;;15.97;51.20;99776.88;4388213;32;32555;-89
2022/04/27 00:52:12;;;;;;;;;;;;;;;16.25;50.24;99783.38;4394147;32;32904;-91
2022/04/27 00:54:40;;;;;;;;;;;;;;;16.02;50.86;99774.50;4393404;32;34032;-90
2022/04/27 00:57:07;;;;;;;;;;;;;;;15.88;51.93;99779.81;4396610;32;35142;-86
2022/04/27 00:59:35;;;;;;;;;;;;;;;15.75;51.96;99774.19;4376225;32;33760;-88
2022/04/27 01:02:04;;;;;;;;;;;;;;;15.53;52.76;99780.34;4388943;32;33367;-86
2022/04/27 01:04:36;;;;;;;;;;;;;;;15.17;54.54;99781.81;4387898;32;35174;-88
2022/04/27 01:07:05;;;;;;;;;;;;;;;15.31;54.35;99779.28;4405160;32;35037;-91
2022/04/27 01:09:33;;;;;;;;;;;;;;;15.37;54.23;99786.63;4392970;32;34154;-92
2022/04/27 01:12:01;;;;;;;;;;;;;;;15.57;53.77;99777.16;4400391;32;32748;-91
2022/04/27 01:14:50;;;;;;;;;;;;;;;15.46;54.22;99774.88;4390183;32;33809;-93
2022/04/27 01:17:20;;;;;;;;;;;;;;;15.27;54.84;99782.44;4404819;32;35118;-91
2022/04/27 01:19:48;;;;;;;;;;;;;;;15.76;53.17;99775.88;4394802;32;33957;-88
2022/04/27 01:22:16;;;;;;;;;;;;;;;15.86;52.86;99779.16;4406478;32;33002;-84
2022/04/27 01:24:44;;;;;;;;;;;;;;;15.83;53.33;99783.03;4395377;32;34182;-91
2022/04/27 01:27:12;;;;;;;;;;;;;;;15.86;53.63;99782.66;4402089;32;33913;-88
2022/04/27 01:29:40;;;;;;;;;;;;;;;15.98;53.54;99789.28;4413611;32;34336;-90
2022/04/27 01:32:10;;;;;;;;;;;;;;;16.11;53.78;99789.53;4411667;32;33012;-86
2022/04/27 01:34:38;;;;;;;;;;;;;;;16.04;54.26;99787.75;4410104;32;32403;-91
2022/04/27 01:39:53;;;;;;;;;;;;;;;15.96;55.29;99795.84;4408024;32;35368;-90
2022/04/27 01:42:21;;;;;;;;;;;;;;;15.79;56.21;99800.47;4407310;32;32778;-86
2022/04/27 01:44:48;;;;;;;;;;;;;;;15.75;56.20;99817.09;4440213;26;33606;-79
2022/04/27 01:47:16;;;;;;;;;;;;;;;15.77;56.09;99815.09;4414311;32;34599;-79
2022/04/27 01:49:43;;;;;;;;;;;;;;;15.66;56.64;99829.72;4413832;32;34805;-79
2022/04/27 01:54:57;;;;;;;;;;;;;;;15.78;56.06;99825.63;4413038;32;33761;-79
2022/04/27 01:57:26;;;;;;;;;;;;;;;15.84;55.98;99826.75;4412587;32;33351;-79
2022/04/27 01:59:55;;;;;;;;;;;;;;;15.88;55.91;99820.06;4400934;32;32875;-78
2022/04/27 02:02:23;;;;;;;;;;;;;;;15.44;57.71;99827.84;4400928;32;32796;-79
2022/04/27 02:04:52;;;;;;;;;;;;;;;15.38;58.05;99823.16;4414356;32;34461;-80
2022/04/27 02:07:20;;;;;;;;;;;;;;;15.37;58.06;99829.53;4414098;32;36078;-81
2022/04/27 02:09:47;;;;;;;;;;;;;;;15.51;57.65;99807.34;4413215;32;35420;-79
2022/04/27 02:12:15;;;;;;;;;;;;;;;15.46;58.24;99815.09;4400357;32;33531;-79
2022/04/27 02:14:43;;;;;;;;;;;;;;;15.32;59.04;99805.06;4412924;32;33644;-77
2022/04/27 02:17:12;;;;;;;;;;;;;;;15.40;59.03;99801.53;4412935;32;34272;-78
2022/04/27 02:19:41;;;;;;;;;;;;;;;15.45;59.13;99802.69;4400232;32;33537;-81
2022/04/27 02:22:08;;;;;;;;;;;;;;;15.56;58.92;99799.59;4413273;32;32260;-79
2022/04/27 02:24:35;;;;;;;;;;;;;;;15.53;59.17;99789.25;4412367;32;32601;-79
2022/04/27 02:27:04;;;;;;;;;;;;;;;15.61;58.95;99797.25;4412693;32;35238;-80
2022/04/27 02:29:31;;;;;;;;;;;;;;;15.59;59.01;99785.84;4399936;32;34230;-79
2022/04/27 02:32:01;;;;;;;;;;;;;;;15.57;59.12;99790.56;4414324;32;33276;-78
2022/04/27 02:34:29;;;;;;;;;;;;;;;15.50;59.42;99780.72;4412493;32;33894;-79
2022/04/27 02:36:58;;;;;;;;;;;;;;;15.51;59.62;99791.25;4385772;32;34662;-80
2022/04/27 02:39:26;;;;;;;;;;;;;;;15.55;59.44;99786.38;4413185;32;34029;-80
2022/04/27 02:41:54;;;;;;;;;;;;;;;15.33;60.43;99785.34;4412206;32;33225;-77
2022/04/27 02:44:22;;;;;;;;;;;;;;;15.49;59.71;99785.22;4412079;32;34105;-78
2022/04/27 02:46:49;;;;;;;;;;;;;;;15.44;59.54;99789.44;4412759;32;35808;-79
2022/04/27 02:52:06;;;;;;;;;;;;;;;15.34;59.78;99781.63;4412839;32;32558;-79
2022/04/27 02:54:36;;;;;;;;;;;;;;;15.36;59.87;99774.25;4388305;32;32712;-81
2022/04/27 02:57:04;;;;;;;;;;;;;;;15.30;60.11;99780.28;4413042;32;35244;-80
2022/04/27 02:59:33;;;;;;;;;;;;;;;15.21;60.72;99772.44;4412959;32;36054;-79
2022/04/27 03:02:01;;;;;;;;;;;;;;;15.06;61.56;99772.34;4412398;32;32647;-79
2022/04/27 03:04:29;;;;;;;;;;;;;;;15.04;61.57;99776.19;4412384;32;34104;-79
2022/04/27 03:06:56;;;;;;;;;;;;;;;15.20;60.97;99776.97;4412239;32;35302;-78
2022/04/27 03:09:24;;;;;;;;;;;;;;;15.33;60.45;99781.81;4413837;32;34093;-79
2022/04/27 03:11:52;;;;;;;;;;;;;;;15.17;61.05;99780.00;4412473;32;32282;-79
2022/04/27 03:14:21;;;;;;;;;;;;;;;15.16;60.98;99782.84;4413704;32;33805;-79
2022/04/27 03:16:49;;;;;;;;;;;;;;;14.67;63.18;99786.66;4413950;32;35461;-80
2022/04/27 03:19:17;;;;;;;;;;;;;;;14.65;63.04;99794.03;4399446;32;34452;-80
2022/04/27 03:21:45;;;;;;;;;;;;;;;14.29;64.59;99792.75;4413804;32;34227;-77
2022/04/27 03:24:14;;;;;;;;;;;;;;;14.57;63.62;99794.06;4400312;32;34009;-77
2022/04/27 03:26:44;;;;;;;;;;;;;;;14.98;61.88;99791.12;4401261;32;34717;-79
2022/04/27 03:29:12;;;;;;;;;;;;;;;14.87;62.13;99802.22;4399815;32;34671;-82
2022/04/27 03:31:39;;;;;;;;;;;;;;;15.01;61.97;99795.31;4414268;32;32806;-80
2022/04/27 03:34:07;;;;;;;;;;;;;;;15.04;61.92;99803.00;4412803;32;34173;-79
2022/04/27 03:36:35;;;;;;;;;;;;;;;15.16;61.45;99799.78;4412089;32;34889;-80
2022/04/27 03:39:03;;;;;;;;;;;;;;;15.25;60.99;99801.41;4412693;32;34640;-79
2022/04/27 03:41:31;;;;;;;;;;;;;;;15.28;60.79;99806.41;4387883;32;790827;-79
2022/04/27 03:43:58;;;;;;;;;;;;;;;15.29;60.86;99800.03;4413817;32;33752;-79
2022/04/27 03:46:26;;;;;;;;;;;;;;;15.27;61.23;99807.44;4386541;32;33537;-79
2022/04/27 03:49:14;;;;;;;;;;;;;;;15.04;62.15;99805.66;4401952;32;35432;-79
2022/04/27 03:51:41;;;;;;;;;;;;;;;15.20;61.41;99808.31;4412372;32;34279;-80
2022/04/27 03:54:11;;;;;;;;;;;;;;;15.31;60.92;99814.12;4412020;32;34012;-82
2022/04/27 03:56:38;;;;;;;;;;;;;;;15.36;60.63;99811.78;4411840;32;35344;-81
2022/04/27 03:59:07;;;;;;;;;;;;;;;15.37;60.65;99815.28;4400171;32;35320;-81
2022/04/27 04:01:35;;;;;;;;;;;;;;;15.36;60.75;99821.66;4411996;32;33029;-81
2022/04/27 04:04:04;;;;;;;;;;;;;;;15.38;60.66;99820.47;4413220;32;34202;-81
2022/04/27 04:06:32;;;;;;;;;;;;;;;15.29;61.08;99815.31;4413229;32;34387;-80
2022/04/27 04:09:00;;;;;;;;;;;;;;;15.29;60.90;99817.97;4413894;32;34382;-80
2022/04/27 04:11:28;;;;;;;;;;;;;;;15.23;61.31;99829.38;4399430;32;32880;-80
2022/04/27 04:13:56;;;;;;;;;;;;;;;15.03;61.78;99828.94;4412167;32;34823;-81
2022/04/27 04:16:25;;;;;;;;;;;;;;;15.00;61.66;99840.00;4411396;32;35083;-79
2022/04/27 04:18:53;;;;;;;;;;;;;;;14.81;62.27;99843.06;4411848;32;35625;-83
2022/04/27 04:21:20;;;;;;;;;;;;;;;14.81;62.53;99842.19;4413122;32;34048;-79
2022/04/27 04:23:48;;;;;;;;;;;;;;;14.80;62.74;99844.06;4411468;32;33938;-79
2022/04/27 04:29:02;;;;;;;;;;;;;;;14.94;62.27;99847.87;4401148;32;33609;-78
2022/04/27 04:31:30;;;;;;;;;;;;;;;15.01;62.00;99851.56;4412933;32;33678;-79
2022/04/27 04:33:59;;;;;;;;;;;;;;;14.68;63.28;99863.31;4411634;32;34122;-79
2022/04/27 04:36:26;;;;;;;;;;;;;;;14.83;62.85;99862.47;4411498;32;35638;-79
2022/04/27 04:38:54;;;;;;;;;;;;;;;14.84;62.82;99871.34;4413127;32;34724;-80
2022/04/27 04:41:22;;;;;;;;;;;;;;;15.09;62.12;99867.59;4412779;32;34417;-79
2022/04/27 04:43:49;;;;;;;;;;;;;;;14.76;63.30;99863.31;4413151;32;34657;-80
2022/04/27 04:46:17;;;;;;;;;;;;;;;15.00;62.28;99864.13;4386637;32;34390;-79
2022/04/27 04:48:45;;;;;;;;;;;;;;;15.19;61.69;99860.19;4411834;32;35194;-80
2022/04/27 04:51:20;;;;;;;;;;;;;;;15.23;61.48;99861.53;4412260;32;33356;-80
2022/04/27 05:11:37;;;;;;;;;;;;;;;15.64;60.58;99879.19;4479727;26;31543;-88
2022/04/27 05:14:06;;;;;;;;;;;;;;;15.69;60.43;99883.00;4408605;32;34257;-93
2022/04/27 05:16:36;;;;;;;;;;;;;;;15.65;60.77;99881.69;4417543;32;35597;-93
2022/04/27 05:19:09;;;;;;;;;;;;;;;15.60;61.29;99894.78;4427234;32;32472;-93
2022/04/27 05:21:37;;;;;;;;;;;;;;;15.73;61.12;99883.50;4416866;32;33327;-93
2022/04/27 05:24:05;;;;;;;;;;;;;;;15.81;62.02;99891.50;4410190;32;34460;-91
2022/04/27 05:26:33;;;;;;;;;;;;;;;15.98;61.64;99893.91;4408869;32;35320;-93
2022/04/27 05:31:55;;;;;;;;;;;;;;;16.11;62.05;99890.66;4420931;32;34137;-87
2022/04/27 05:34:24;;;;;;;;;;;;;;;16.37;62.11;99892.06;4417536;32;34563;-95
2022/04/27 05:36:52;;;;;;;;;;;;;;;16.20;60.50;99895.81;4405965;32;34982;-94
2022/04/27 05:39:21;;;;;;;;;;;;;;;16.73;59.01;99903.88;4421509;32;34438;-91
2022/04/27 05:41:53;;;;;;;;;;;;;;;16.78;59.10;99892.56;4412942;32;33267;-95
2022/04/27 05:44:23;;;;;;;;;;;;;;;16.90;59.09;99894.63;4407784;32;34601;-95
2022/04/27 05:46:51;;;;;;;;;;;;;;;16.73;58.74;99898.50;4434392;32;34729;-92
2022/04/27 05:49:19;;;;;;;;;;;;;;;16.93;58.18;99901.50;4422293;32;34715;-93
2022/04/27 05:51:49;;;;;;;;;;;;;;;17.14;57.89;99907.84;4438135;32;33547;-90
2022/04/27 05:54:17;;;;;;;;;;;;;;;16.87;57.00;99910.28;4415521;32;34320;-96
2022/04/27 05:56:46;;;;;;;;;;;;;;;16.96;56.88;99904.66;4430920;32;35096;-87
2022/04/27 05:59:14;;;;;;;;;;;;;;;17.48;53.65;99910.03;4416870;32;36162;-91
2022/04/27 06:01:42;;;;;;;;;;;;;;;17.07;52.51;99911.47;4410823;32;32145;-93
2022/04/27 06:04:10;;;;;;;;;;;;;;;16.71;54.26;99910.44;4407428;32;33959;-87
2022/04/27 06:06:39;;;;;;;;;;;;;;;16.48;55.29;99910.44;4419569;32;35384;-90
2022/04/27 06:09:14;;;;;;;;;;;;;;;16.67;53.80;99915.31;4422442;32;33542;-94
2022/04/27 06:11:42;;;;;;;;;;;;;;;16.65;55.69;99916.50;4441710;32;33234;-96
2022/04/27 06:14:13;;;;;;;;;;;;;;;16.89;55.28;99916.31;4418721;32;33331;-86
2022/04/27 06:16:42;;;;;;;;;;;;;;;16.93;56.23;99920.31;4415457;32;35194;-94
2022/04/27 06:19:11;;;;;;;;;;;;;;;17.07;55.70;99924.91;4412691;32;35602;-84
2022/04/27 06:22:04;;;;;;;;;;;;;;;17.10;55.56;99925.37;4417486;32;33389;-88
2022/04/27 06:24:32;;;;;;;;;;;;;;;17.04;55.00;99942.22;4416437;32;32734;-85
2022/04/27 06:27:06;;;;;;;;;;;;;;;17.23;54.60;99936.31;4421037;32;35894;-88
2022/04/27 06:29:35;;;;;;;;;;;;;;;17.53;53.72;99928.12;4402432;32;34355;-89
2022/04/27 06:32:03;;;;;;;;;;;;;;;17.11;53.34;99943.16;4429011;32;32495;-91
2022/04/27 06:34:31;;;;;;;;;;;;;;;17.25;54.12;99939.66;4419467;32;32470;-89
2022/04/27 06:36:59;;;;;;;;;;;;;;;17.66;52.93;99944.44;4405101;32;35985;-88
2022/04/27 06:39:27;;;;;;;;;;;;;;;17.69;53.06;99944.06;4402271;32;34744;-88
2022/04/27 06:41:55;;;;;;;;;;;;;;;17.70;52.75;99948.47;4420015;32;33098;-84
2022/04/27 06:44:31;;;;;;;;;;;;;;;17.62;54.27;99945.84;4422763;32;34665;-85
2022/04/27 06:47:06;;;;;;;;;;;;;;;17.61;54.63;99943.34;4417884;32;34341;-85
2022/04/27 06:49:52;;;;;;;;;;;;;;;17.67;54.09;99943.44;4405938;32;35680;-85
2022/04/27 06:52:43;;;;;;;;;;;;;;;17.54;55.36;99950.47;4419133;32;33446;-88
2022/04/27 06:55:18;;;;;;;;;;;;;;;17.01;55.65;99955.19;4424909;32;34053;-89
2022/04/27 06:57:48;;;;;;;;;;;;;;;17.22;56.25;99958.00;4407747;32;34487;-91
2022/04/27 07:00:15;;;;;;;;;;;;;;;16.87;57.06;99961.31;4419018;32;35166;-89
2022/04/27 07:02:43;;;;;;;;;;;;;;;16.68;57.26;99965.34;4407949;32;32842;-88
2022/04/27 07:05:17;;;;;;;;;;;;;;;16.92;57.17;99958.94;4404912;32;32489;-88
2022/04/27 07:07:45;;;;;;;;;;;;;;;16.89;57.36;99965.50;4418052;32;34749;-86
2022/04/27 07:10:13;;;;;;;;;;;;;;;17.14;56.19;99967.00;4420766;32;33766;-94
2022/04/27 07:12:42;;;;;;;;;;;;;;;17.05;55.81;99961.84;4412126;32;33127;-87
2022/04/27 07:15:11;;;;;;;;;;;;;;;16.71;57.69;99969.53;4411368;32;33421;-90
2022/04/27 07:17:38;;;;;;;;;;;;;;;16.87;56.88;99972.94;4433016;32;34821;-91
2022/04/27 07:20:06;;;;;;;;;;;;;;;17.12;56.90;99968.19;4396961;32;33103;-90
2022/04/27 07:22:34;;;;;;;;;;;;;;;17.51;55.49;99972.38;4416903;32;33784;-88
2022/04/27 07:25:02;;;;;;;;;;;;;;;17.07;57.06;99966.03;4395195;32;32728;-88
2022/04/27 07:27:31;;;;;;;;;;;;;;;17.48;55.86;99982.66;4405404;32;36198;-88
2022/04/27 07:29:59;;;;;;;;;;;;;;;17.66;55.65;99976.75;4418303;32;33849;-89
2022/04/27 07:32:26;;;;;;;;;;;;;;;17.66;54.80;99971.34;4411090;32;33023;-87
2022/04/27 07:34:54;;;;;;;;;;;;;;;17.56;55.24;99981.56;4416205;32;34208;-90
2022/04/27 07:37:21;;;;;;;;;;;;;;;17.80;55.15;99981.31;4417286;32;34756;-89
2022/04/27 07:39:49;;;;;;;;;;;;;;;17.59;57.14;99983.88;4416498;32;34155;-88
2022/04/27 07:42:16;;;;;;;;;;;;;;;17.47;55.71;99997.12;4413988;32;33358;-88
2022/04/27 07:44:43;;;;;;;;;;;;;;;17.27;56.54;99990.56;4404159;32;33445;-92
2022/04/27 07:47:13;;;;;;;;;;;;;;;17.77;54.21;99989.72;4392310;32;33745;-87
2022/04/27 07:49:40;;;;;;;;;;;;;;;17.82;54.87;99983.78;4404307;32;32780;-88
2022/04/27 07:52:08;;;;;;;;;;;;;;;17.95;54.41;99984.81;4421274;32;33477;-86
2022/04/27 07:54:36;;;;;;;;;;;;;;;17.94;55.43;99985.03;4416027;32;33265;-89
2022/04/27 07:57:03;;;;;;;;;;;;;;;18.15;54.67;99993.97;4392032;32;35778;-90
2022/04/27 07:59:31;;;;;;;;;;;;;;;18.04;52.52;99988.25;4423694;32;35135;-89
2022/04/27 08:01:59;;;;;;;;;;;;;;;18.23;51.72;99990.38;4409914;32;33414;-89
2022/04/27 08:04:27;;;;;;;;;;;;;;;18.04;52.53;99993.66;4409682;32;33451;-87
2022/04/27 08:06:55;;;;;;;;;;;;;;;18.16;51.80;99992.13;4415967;32;34317;-90
2022/04/27 08:09:29;;;;;;;;;;;;;;;18.18;51.93;99992.78;4408896;32;34704;-88
2022/04/27 08:11:57;;;;;;;;;;;;;;;18.30;52.89;99994.84;4423241;32;32502;-88
2022/04/27 08:14:24;;;;;;;;;;;;;;;18.33;52.93;99985.56;4410690;32;33941;-88
2022/04/27 08:16:53;;;;;;;;;;;;;;;18.86;51.65;99995.88;4394445;32;33161;-89
2022/04/27 08:19:20;;;;;;;;;;;;;;;19.14;51.41;99997.62;4409522;32;34748;-89
2022/04/27 08:21:48;;;;;;;;;;;;;;;19.21;49.13;99993.16;4403937;32;31585;-88
2022/04/27 08:24:19;;;;;;;;;;;;;;;18.96;50.79;100004.47;4410628;32;34175;-91
2022/04/27 08:26:48;;;;;;;;;;;;;;;19.05;51.10;100008.72;4434733;32;35291;-88
2022/04/27 08:29:16;;;;;;;;;;;;;;;19.55;48.11;100012.09;4430211;32;34876;-90
2022/04/27 08:31:43;;;;;;;;;;;;;;;19.60;48.05;100011.50;4414023;32;33255;-88
2022/04/27 08:34:15;;;;;;;;;;;;;;;19.50;48.82;100011.84;4423656;32;33845;-90
2022/04/27 08:36:43;;;;;;;;;;;;;;;19.35;49.25;100011.09;4403033;32;33256;-88
2022/04/27 08:39:11;;;;;;;;;;;;;;;19.58;47.19;100017.13;4406028;32;32803;-88
2022/04/27 08:41:38;;;;;;;;;;;;;;;18.98;50.10;100007.84;4426571;32;32228;-91
2022/04/27 08:44:07;;;;;;;;;;;;;;;18.89;50.64;100017.06;4414743;32;34185;-94
2022/04/27 08:46:35;;;;;;;;;;;;;;;18.95;51.04;100011.75;4402462;32;33938;-88
2022/04/27 08:49:02;;;;;;;;;;;;;;;19.11;50.06;100007.94;4404678;32;35204;-89
2022/04/27 08:51:30;;;;;;;;;;;;;;;19.00;50.53;100013.87;4406976;32;32656;-89
2022/04/27 08:53:58;;;;;;;;;;;;;;;19.34;50.26;100001.34;4418900;32;33433;-90
2022/04/27 08:56:26;;;;;;;;;;;;;;;19.32;50.38;100005.25;4421131;32;36711;-87
2022/04/27 08:58:54;;;;;;;;;;;;;;;19.58;50.35;100005.47;4414982;32;34554;-88
2022/04/27 09:01:22;;;;;;;;;;;;;;;19.64;50.84;100010.09;4418609;32;33706;-87
2022/04/27 09:03:50;;;;;;;;;;;;;;;19.79;49.52;100014.34;4415475;32;34748;-88
2022/04/27 09:06:20;;;;;;;;;;;;;;;19.90;50.85;100013.78;4396818;32;33680;-85
2022/04/27 09:08:48;;;;;;;;;;;;;;;19.98;48.48;100007.41;4417506;32;34441;-88
2022/04/27 09:11:16;;;;;;;;;;;;;;;20.29;49.10;100008.62;4426471;32;34294;-88
2022/04/27 09:13:48;;;;;;;;;;;;;;;19.93;50.24;100009.87;4406440;32;33942;-88
2022/04/27 09:16:16;;;;;;;;;;;;;;;20.14;49.27;100012.50;4430957;32;35373;-88
2022/04/27 09:21:53;;;;;;;;;;;;;;;20.47;48.29;100016.22;4438335;32;32745;-87
2022/04/27 09:24:21;;;;;;;;;;;;;;;20.45;47.23;100008.28;4401047;32;32930;-87
2022/04/27 09:26:57;;;;;;;;;;;;;;;20.25;47.82;100010.09;4410676;32;34629;-87
2022/04/27 09:29:25;;;;;;;;;;;;;;;20.21;49.36;100011.50;4401268;32;34684;-86
2022/04/27 09:31:56;;;;;;;;;;;;;;;20.52;47.09;100017.28;4402033;32;33268;-88
2022/04/27 09:34:28;;;;;;;;;;;;;;;20.19;45.85;100018.97;4426670;32;33795;-86
2022/04/27 09:36:55;;;;;;;;;;;;;;;19.95;46.13;100014.06;4414717;32;34473;-87
2022/04/27 09:39:26;;;;;;;;;;;;;;;20.17;46.79;100014.81;4426105;32;33813;-87
2022/04/27 09:41:55;;;;;;;;;;;;;;;20.44;46.79;100011.19;4423317;32;33576;-89
2022/04/27 09:44:28;;;;;;;;;;;;;;;20.68;47.20;100006.91;4404564;32;34996;-87
2022/04/27 09:46:55;;;;;;;;;;;;;;;20.72;47.67;100002.78;4415363;32;36060;-88
2022/04/27 09:49:23;;;;;;;;;;;;;;;20.87;45.67;99999.94;4415945;32;34022;-88
2022/04/27 09:52:00;;;;;;;;;;;;;;;20.82;45.24;100008.62;4398088;32;31657;-89
2022/04/27 09:54:28;;;;;;;;;;;;;;;20.78;46.39;100004.66;4416949;32;32358;-86
2022/04/27 09:56:56;;;;;;;;;;;;;;;20.93;46.02;100005.34;4435035;32;35805;-92
2022/04/27 09:59:35;;;;;;;;;;;;;;;21.04;45.20;100003.91;4417774;32;34349;-86
2022/04/27 10:02:08;;;;;;;;;;;;;;;21.14;43.49;100004.31;4420606;32;32528;-85
2022/04/27 10:04:37;;;;;;;;;;;;;;;20.74;45.33;100003.41;4414556;32;34302;-88
2022/04/27 10:07:07;;;;;;;;;;;;;;;20.90;45.54;100005.75;4417022;32;34304;-84
2022/04/27 10:09:35;;;;;;;;;;;;;;;20.69;46.23;100015.88;4429828;32;33762;-89
2022/04/27 10:12:13;;;;;;;;;;;;;;;20.59;46.81;100016.25;4408917;32;33553;-86
2022/04/27 10:14:40;;;;;;;;;;;;;;;20.04;46.28;100015.59;4425985;32;34136;-85
2022/04/27 10:17:09;;;;;;;;;;;;;;;20.23;46.79;100014.00;4399614;32;33745;-85
2022/04/27 10:19:42;;;;;;;;;;;;;;;20.17;47.38;100021.06;4417392;32;34360;-89
2022/04/27 10:22:24;;;;;;;;;;;;;;;20.03;46.76;100021.16;4412883;32;32332;-86
2022/04/27 10:24:53;;;;;;;;;;;;;;;19.97;48.23;100016.53;4424703;32;35969;-87
2022/04/27 10:27:25;;;;;;;;;;;;;;;19.65;48.33;100020.69;4411223;32;33243;-87
2022/04/27 10:30:00;;;;;;;;;;;;;;;19.41;49.26;100020.28;4425142;32;34859;-89
2022/04/27 10:32:35;;;;;;;;;;;;;;;19.41;50.09;100018.44;4412465;32;33174;-90
2022/04/27 10:35:17;;;;;;;;;;;;;;;18.95;51.20;100030.63;4404325;32;34573;-84
2022/04/27 10:37:45;;;;;;;;;;;;;;;18.51;51.95;100026.41;4427096;32;35286;-81
2022/04/27 10:40:29;;;;;;;;;;;;;;;18.24;53.13;100030.56;4436020;32;34012;-85
2022/04/27 10:43:03;;;;;;;;;;;;;;;18.28;53.64;100031.03;4401380;32;32050;-84
2022/04/27 10:45:31;;;;;;;;;;;;;;;17.58;55.50;100032.50;4434077;32;33678;-87
2022/04/27 10:48:03;;;;;;;;;;;;;;;17.55;55.47;100041.78;4405207;32;35288;-87
2022/04/27 10:50:33;;;;;;;;;;;;;;;17.57;55.46;100034.34;4417226;32;34119;-85
2022/04/27 10:53:17;;;;;;;;;;;;;;;17.89;54.87;100030.47;4404147;32;33366;-84
2022/04/27 10:55:56;;;;;;;;;;;;;;;18.18;54.55;100028.62;4408559;32;33624;-88
2022/04/27 10:58:24;;;;;;;;;;;;;;;18.12;53.87;100039.28;4429147;32;35166;-89
2022/04/27 11:00:58;;;;;;;;;;;;;;;17.71;54.51;100036.25;4414850;32;34011;-85
2022/04/27 11:03:26;;;;;;;;;;;;;;;17.81;54.31;100041.34;4415934;32;31619;-83
2022/04/27 11:05:58;;;;;;;;;;;;;;;17.64;54.97;100037.97;4421308;32;34863;-85
2022/04/27 11:08:44;;;;;;;;;;;;;;;17.49;55.36;100036.28;4417760;32;34896;-89
2022/04/27 11:11:12;;;;;;;;;;;;;;;17.56;55.85;100040.75;4432712;32;34810;-90
2022/04/27 11:13:40;;;;;;;;;;;;;;;17.61;55.53;100046.44;4398484;32;32597;-86
2022/04/27 11:16:08;;;;;;;;;;;;;;;17.29;55.49;100045.00;4416291;32;32517;-91
2022/04/27 11:18:57;;;;;;;;;;;;;;;17.48;55.22;100044.53;4420762;32;34481;-88
2022/04/27 11:21:26;;;;;;;;;;;;;;;16.89;57.58;100048.00;4419583;32;32909;-91
2022/04/27 11:23:54;;;;;;;;;;;;;;;16.96;58.08;100046.25;4402092;32;32693;-89
2022/04/27 11:26:22;;;;;;;;;;;;;;;17.03;58.01;100049.91;4419843;32;33856;-90
2022/04/27 11:28:52;;;;;;;;;;;;;;;17.13;57.66;100045.13;4417970;32;35123;-89
2022/04/27 11:31:20;;;;;;;;;;;;;;;16.77;59.10;100052.94;4406325;32;34081;-89
2022/04/27 11:33:48;;;;;;;;;;;;;;;17.02;57.70;100049.09;4408019;32;34052;-89
2022/04/27 11:36:26;;;;;;;;;;;;;;;16.81;58.36;100051.56;4429115;32;34995;-93
2022/04/27 11:38:54;;;;;;;;;;;;;;;16.92;57.42;100055.69;4418127;32;34726;-87
2022/04/27 11:41:26;;;;;;;;;;;;;;;16.68;58.28;100051.31;4410089;32;35227;-88
2022/04/27 11:43:54;;;;;;;;;;;;;;;16.57;58.76;100056.25;4426899;32;33662;-84
2022/04/27 11:46:21;;;;;;;;;;;;;;;16.55;59.22;100050.22;4408368;32;33147;-90
2022/04/27 11:48:50;;;;;;;;;;;;;;;16.40;59.16;100055.50;4423210;32;36145;-92
2022/04/27 11:51:18;;;;;;;;;;;;;;;16.51;57.65;100059.66;4430267;32;35908;-87
2022/04/27 11:53:47;;;;;;;;;;;;;;;16.42;57.99;100052.62;4404844;32;31850;-89
2022/04/27 11:56:18;;;;;;;;;;;;;;;16.40;57.60;100057.31;4408337;32;33279;-93
2022/04/27 11:58:46;;;;;;;;;;;;;;;16.02;59.93;100063.47;4405344;32;34989;-91
2022/04/27 12:01:21;;;;;;;;;;;;;;;16.41;58.84;100059.03;4403712;32;35140;-92
2022/04/27 12:03:49;;;;;;;;;;;;;;;16.54;58.27;100061.97;4405093;32;32766;-86
2022/04/27 12:06:18;;;;;;;;;;;;;;;16.28;59.12;100059.53;4420719;32;32569;-89
2022/04/27 12:08:45;;;;;;;;;;;;;;;16.38;58.93;100062.03;4434014;32;34673;-86
2022/04/27 12:11:21;;;;;;;;;;;;;;;16.53;58.85;100065.66;4402427;32;33441;-85
2022/04/27 12:13:49;;;;;;;;;;;;;;;16.40;58.38;100060.84;4435647;32;33444;-87
2022/04/27 12:16:17;;;;;;;;;;;;;;;16.14;58.57;100064.81;4403699;32;33466;-86
2022/04/27 12:18:54;;;;;;;;;;;;;;;16.14;58.29;100062.12;4412306;32;34104;-87
2022/04/27 12:21:27;;;;;;;;;;;;;;;15.68;59.63;100069.09;4412542;32;34777;-87
2022/04/27 12:23:56;;;;;;;;;;;;;;;15.75;59.67;100063.87;4401730;32;32789;-94
2022/04/27 12:26:24;;;;;;;;;;;;;;;15.68;59.48;100060.22;4404521;32;33956;-88
2022/04/27 12:28:52;;;;;;;;;;;;;;;15.99;58.95;100066.50;4415193;32;33536;-85
2022/04/27 12:31:24;;;;;;;;;;;;;;;15.75;59.98;100055.81;4402769;32;35145;-87
2022/04/27 12:33:53;;;;;;;;;;;;;;;15.62;60.58;100059.06;4420090;32;33890;-88
2022/04/27 12:39:25;;;;;;;;;;;;;;;15.54;60.71;100059.06;4427177;32;34553;-93
2022/04/27 12:42:05;;;;;;;;;;;;;;;15.45;60.92;100059.22;4425765;32;34712;-89
2022/04/27 12:44:40;;;;;;;;;;;;;;;15.59;60.74;100056.69;4416187;32;31286;-89
2022/04/27 12:47:08;;;;;;;;;;;;;;;15.64;60.86;100057.03;4392640;32;32614;-90
2022/04/27 12:49:36;;;;;;;;;;;;;;;15.36;61.50;100057.56;4427497;32;34513;-93
2022/04/27 12:52:36;;;;;;;;;;;;;;;15.20;61.95;100063.72;4427947;32;34930;-94
2022/04/27 12:55:04;;;;;;;;;;;;;;;15.18;62.64;100062.22;4392366;32;32409;-85
2022/04/27 12:58:02;;;;;;;;;;;;;;;15.01;63.05;100061.37;4420332;32;33056;-89
2022/04/27 13:00:42;;;;;;;;;;;;;;;14.96;63.55;100063.72;4405856;32;35253;-88
2022/04/27 13:03:10;;;;;;;;;;;;;;;14.81;64.32;100065.34;4436085;32;35100;-90
2022/04/27 13:05:40;;;;;;;;;;;;;;;14.81;64.02;100067.19;4407993;32;32852;-87
2022/04/27 13:08:08;;;;;;;;;;;;;;;14.85;63.99;100061.34;4415838;32;33671;-86
2022/04/27 13:13:22;;;;;;;;;;;;;;;14.34;65.98;100063.38;4420441;32;33314;-83
2022/04/27 13:15:50;;;;;;;;;;;;;;;14.21;67.42;100071.03;4432501;32;33393;-88
2022/04/27 13:18:17;;;;;;;;;;;;;;;14.52;66.47;100069.47;4402876;32;34145;-90
2022/04/27 13:20:47;;;;;;;;;;;;;;;14.29;67.36;100067.53;4397312;32;34505;-86
2022/04/27 13:23:15;;;;;;;;;;;;;;;14.40;66.59;100062.72;4436777;32;34232;-89
2022/04/27 13:25:43;;;;;;;;;;;;;;;14.23;67.71;100061.00;4404580;32;32766;-90
2022/04/27 13:28:12;;;;;;;;;;;;;;;14.68;66.17;100064.16;4410684;32;33773;-89
2022/04/27 13:30:43;;;;;;;;;;;;;;;14.36;67.21;100066.75;4440130;32;35297;-89
2022/04/27 13:33:11;;;;;;;;;;;;;;;14.36;67.52;100061.41;4416388;32;34276;-88
2022/04/27 13:35:39;;;;;;;;;;;;;;;14.07;68.45;100074.25;4428534;32;32850;-94